Aérodrome :
LOGIN :

S'inscrire | Disclaimer

   EN    FR    IT 

 










Légende :    VFR   VFR Marginal   IFR   IFR Intensif   IFR Très Intensif
Visi : 
Plafond : 
>= 8 km
>= 3000ft
5 à 8 km
1000 à 3000 ft
1500m à 5 km
500 à 1000 ft
800 à 1500m
200 à 500 ft
< 800m
< 200 ft
Symboles :   Orages  Brouillard  Fortes neiges  Fortes précipitations  Vent > 20 kt
SIGMETs :   Divers  Orages  Givrage  Turbulence  Onde Orograph.  Cendres Volcan.






- Altitude de l'aérodrome : 1249 ft


ETSN - Neuburg AB

DERNIER METAR :
  • 232020Z 06006KT 9999 -RA FEW040 SCT060 BKN085 20/17 Q1016 BLU

METARs EXPIRÉS :
  • 231920Z 04005KT 9999 -RA FEW040 BKN100 21/17 Q1015 BLU
  • 231820Z 03004KT 9999 FEW040 BKN140 BKN180 23/16 Q1015 BLU

TAF TAF ETSN
Valide du 23 à 20h jusqu'au 24 à 05h UTC


231900Z 2320/2405 35005KT 9999 NSW SCT040 BKN180
TEMPO 2320/2324 VRB15G40KT 2000 +TSRA BKN030CB
TEMPO 2402/2405 VRB02KT 0700 FG SCT001 BY ETGL



MET'MAP, la Météo Aéronautique d'un coup d'oeil ! - Copyright ORBIFLY Décembre 2007 - Disclaimer

ORBIFLY MET'MAP TEAM :

Programmation & Développement : Alexandra Zaïnal
Sur une idée originale de : Baudouin d'Aumeries
Assistance à la programmation : Marc-Olivier Méhu
Soutien technique & logistique : Manuel Goepfert

Contact : metmap@orbifly.com




SOURCES & CREDITS :

   NOAA